Sunday, November 23, 2014, 1:29 PM EST

KPTB, Petersburg, Dinwiddie County Airport

Location: Petersburg, VA, United States Lat: 37.183
Local Time: 1:29 PM EST (18:29 GMT) Lon: -77.517
Time Zone: US/Eastern Elev: 193 ft

Show me the last for .
Show Decoded

2014-11-23 13:15 METAR KPTB 231815Z AUTO 08003KT 10SM CLR 12/05 A3016 RMK AO2 T01210047 =
2014-11-23 12:55 METAR KPTB 231755Z AUTO 00000KT 10SM CLR 12/05 A3017 RMK AO2 T01180047 10118
                 20000 =
2014-11-23 12:35 METAR KPTB 231735Z AUTO 00000KT 10SM CLR 11/04 A3018 RMK AO2 T01140043 =
2014-11-23 12:15 METAR KPTB 231715Z AUTO 00000KT 10SM CLR 11/04 A3019 RMK AO2 T01110040 =
2014-11-23 11:35 METAR KPTB 231635Z AUTO 00000KT 10SM CLR 09/01 A3021 RMK AO2 T00940009 =
2014-11-23 11:15 METAR KPTB 231615Z AUTO 00000KT 10SM CLR 09/00 A3022 RMK AO2 T00880002 =
2014-11-23 10:55 METAR KPTB 231555Z AUTO 00000KT 10SM CLR 08/00 A3023 RMK AO2 T00811002 =
2014-11-23 10:35 METAR KPTB 231535Z AUTO 00000KT 10SM CLR 07/M01 A3024 RMK AO2 T00741014 =
2014-11-23 10:15 METAR KPTB 231515Z AUTO 00000KT 10SM CLR 07/M01 A3025 RMK AO2 T00701013 =
2014-11-23 09:55 METAR KPTB 231455Z AUTO 00000KT 10SM CLR 06/M02 A3025 RMK AO2 T00611017 =
2014-11-23 09:35 METAR KPTB 231435Z AUTO 00000KT 10SM CLR 06/M02 A3027 RMK AO2 T00551020 =
2014-11-23 09:15 METAR KPTB 231415Z AUTO 00000KT 10SM CLR 05/M03 A3026 RMK AO2 T00451027 =
2014-11-23 08:55 METAR KPTB 231355Z AUTO 00000KT 10SM CLR 04/M02 A3025 RMK AO2 T00411019 =
2014-11-23 08:35 METAR KPTB 231335Z AUTO 00000KT 10SM CLR 03/00 A3025 RMK AO2 T00341002 =
2014-11-23 08:15 METAR KPTB 231315Z AUTO 00000KT 10SM CLR 02/00 A3026 RMK AO2 T00241001 =
2014-11-23 07:55 METAR KPTB 231255Z AUTO 00000KT 10SM CLR 01/00 A3026 RMK AO2 T00131005 =
2014-11-23 07:35 METAR KPTB 231235Z AUTO 00000KT 10SM CLR 01/M01 A3027 RMK AO2 T00081012 =
2014-11-23 07:15 METAR KPTB 231215Z AUTO 00000KT 10SM CLR 01/M01 A3027 RMK AO2 T00071012 =
2014-11-23 06:55 METAR KPTB 231155Z AUTO 00000KT 10SM SCT015 00/M01 A3028 RMK AO2 T00001012 10003
                 21025 =
2014-11-23 06:35 METAR KPTB 231135Z AUTO 00000KT 10SM CLR 00/M02 A3028 RMK AO2 T00001020 =
2014-11-23 06:15 METAR KPTB 231115Z AUTO 00000KT 10SM CLR 00/M02 A3028 RMK AO2 T10011023 =
2014-11-23 05:55 METAR KPTB 231055Z AUTO 00000KT 10SM CLR 00/M03 A3028 RMK AO2 T00001027 =
2014-11-23 05:15 METAR KPTB 231015Z AUTO 18003KT 10SM CLR 00/M03 A3029 RMK AO2 T10041034 =
2014-11-23 04:55 METAR KPTB 230955Z AUTO 00000KT 10SM CLR 00/M03 A3028 RMK AO2 T10051027 =
2014-11-23 04:35 METAR KPTB 230935Z AUTO 00000KT 10SM CLR 00/M02 A3028 RMK AO2 T10051023 =
2014-11-23 04:15 METAR KPTB 230915Z AUTO 00000KT 10SM CLR M01/M03 A3028 RMK AO2 T10091028 =
2014-11-23 03:55 METAR KPTB 230855Z AUTO 00000KT 10SM CLR M01/M03 A3029 RMK AO2 T10121035 =
2014-11-23 03:35 METAR KPTB 230835Z AUTO 00000KT 10SM CLR M01/M03 A3029 RMK AO2 T10151032 =
2014-11-23 03:15 METAR KPTB 230815Z AUTO 00000KT 10SM CLR M01/M04 A3029 RMK AO2 T10111042 =
2014-11-23 02:55 METAR KPTB 230755Z AUTO 00000KT 10SM CLR M02/M04 A3030 RMK AO2 T10161041 =
2014-11-23 02:35 METAR KPTB 230735Z AUTO 00000KT 10SM CLR M02/M05 A3030 RMK AO2 T10161047 =
2014-11-23 02:15 METAR KPTB 230715Z AUTO 00000KT 10SM CLR M01/M05 A3031 RMK AO2 T10121053 =
2014-11-23 01:55 METAR KPTB 230655Z AUTO 00000KT 10SM CLR M02/M04 A3031 RMK AO2 T10191045 =
2014-11-23 01:35 METAR KPTB 230635Z AUTO 00000KT 10SM CLR M02/M05 A3031 RMK AO2 T10191047 =
2014-11-23 01:15 METAR KPTB 230615Z AUTO 00000KT 10SM CLR M02/M05 A3031 RMK AO2 T10181049 =
2014-11-23 00:55 METAR KPTB 230555Z AUTO 00000KT 10SM CLR M02/M05 A3031 RMK AO2 T10241046 10024
                 21026 =
2014-11-23 00:35 METAR KPTB 230535Z AUTO 00000KT 10SM CLR M02/M05 A3032 RMK AO2 T10211048 =
2014-11-23 00:15 METAR KPTB 230515Z AUTO 00000KT 10SM CLR M02/M05 A3032 RMK AO2 T10251050 =
2014-11-22 23:55 METAR KPTB 230455Z AUTO 19003KT 10SM CLR M02/M05 A3033 RMK AO2 T10191051
                 401101086 =
2014-11-22 23:35 METAR KPTB 230435Z AUTO 00000KT 10SM CLR M02/M05 A3033 RMK AO2 T10171052 =
2014-11-22 23:15 METAR KPTB 230415Z AUTO 00000KT 10SM CLR M02/M05 A3033 RMK AO2 T10211055 =
2014-11-22 22:55 METAR KPTB 230355Z AUTO 00000KT 10SM CLR M01/M05 A3033 RMK AO2 T10121053 =
2014-11-22 22:35 METAR KPTB 230335Z AUTO 00000KT 10SM CLR M02/M05 A3034 RMK AO2 T10171051 =
2014-11-22 22:15 METAR KPTB 230315Z AUTO 00000KT 10SM CLR M02/M05 A3035 RMK AO2 T10211048 =
2014-11-22 21:55 METAR KPTB 230255Z AUTO 20003KT 10SM CLR M02/M05 A3036 RMK AO2 T10241054 =
2014-11-22 21:35 METAR KPTB 230235Z AUTO 00000KT 10SM CLR M01/M05 A3036 RMK AO2 T10111052 =
2014-11-22 21:15 METAR KPTB 230215Z AUTO 21003KT 10SM CLR M02/M06 A3036 RMK AO2 T10171056 =
2014-11-22 20:55 METAR KPTB 230155Z AUTO 00000KT 10SM CLR M02/M05 A3036 RMK AO2 T10181051 =
2014-11-22 20:35 METAR KPTB 230135Z AUTO 00000KT 10SM CLR M02/M05 A3035 RMK AO2 T10191054 =
2014-11-22 20:15 METAR KPTB 230115Z AUTO 00000KT 10SM CLR M02/M05 A3035 RMK AO2 T10171051 =
2014-11-22 19:55 METAR KPTB 230055Z AUTO 22003KT 10SM CLR M01/M05 A3035 RMK AO2 T10061055 =
2014-11-22 19:35 METAR KPTB 230035Z AUTO 20004KT 10SM CLR M01/M06 A3035 RMK AO2 T10061057 =
2014-11-22 19:15 METAR KPTB 230015Z AUTO 21003KT 10SM CLR 01/M06 A3036 RMK AO2 T00051060 =
2014-11-22 18:55 METAR KPTB 222355Z AUTO 00000KT 10SM CLR 02/M07 A3035 RMK AO2 T00171066 10110
                 20002 =
2014-11-22 18:35 METAR KPTB 222335Z AUTO 20003KT 10SM CLR 01/M06 A3036 RMK AO2 T00051063 =
2014-11-22 18:15 METAR KPTB 222315Z AUTO 00000KT 10SM CLR 06/M09 A3037 RMK AO2 T00551088 =
2014-11-22 17:55 METAR KPTB 222255Z AUTO 17004KT 10SM CLR 06/M09 A3037 RMK AO2 T00581091 =
2014-11-22 17:35 METAR KPTB 222235Z AUTO 00000KT 10SM CLR 06/M09 A3038 RMK AO2 T00601089 =
2014-11-22 17:15 METAR KPTB 222215Z AUTO 19004KT 10SM CLR 06/M09 A3038 RMK AO2 T00631087 =
2014-11-22 16:55 METAR KPTB 222155Z AUTO 18003KT 10SM CLR 08/M09 A3038 RMK AO2 T00761090 =
2014-11-22 16:35 METAR KPTB 222135Z AUTO 18003KT 10SM CLR 09/M09 A3039 RMK AO2 T00851092 =
2014-11-22 16:15 METAR KPTB 222115Z AUTO 19003KT 10SM CLR 09/M10 A3040 RMK AO2 T00941102 =
2014-11-22 15:55 METAR KPTB 222055Z AUTO 21005KT 10SM CLR 10/M11 A3040 RMK AO2 T01031109 =
2014-11-22 15:35 METAR KPTB 222035Z AUTO 20007KT 10SM CLR 11/M11 A3041 RMK AO2 T01051114 =
2014-11-22 15:15 METAR KPTB 222015Z AUTO 22005KT 10SM CLR 11/M11 A3041 RMK AO2 T01071113 =
2014-11-22 14:55 METAR KPTB 221955Z AUTO 20005KT 10SM CLR 11/M12 A3041 RMK AO2 T01101117 =
2014-11-22 14:35 METAR KPTB 221935Z AUTO 19005KT 10SM CLR 11/M12 A3041 RMK AO2 T01071119 =
2014-11-22 14:15 METAR KPTB 221915Z AUTO 19004KT 10SM CLR 11/M12 A3041 RMK AO2 T01071120 =
2014-11-22 13:55 METAR KPTB 221855Z AUTO 21007G14KT 10SM CLR 11/M12 A3042 RMK AO2 T01071123 =
2014-11-22 13:35 METAR KPTB 221835Z AUTO 19007KT 10SM CLR 11/M12 A3043 RMK AO2 T01051119 =

Support USWX by starting your Amazon purchase here.